createdAt,value
2019-04-07T00:02:01.117Z,74.41
2019-04-07T00:04:31.080Z,74.20
2019-04-07T00:06:58.824Z,74.48
2019-04-07T00:09:26.129Z,74.39
2019-04-07T00:11:54.165Z,74.81
2019-04-07T00:14:21.461Z,74.75
2019-04-07T00:16:50.599Z,74.95
2019-04-07T00:19:18.126Z,74.83
2019-04-07T00:21:46.029Z,74.91
2019-04-07T00:24:13.644Z,74.65
2019-04-07T00:26:41.621Z,74.41
2019-04-07T00:29:09.743Z,74.94
2019-04-07T00:31:37.372Z,75.13
2019-04-07T00:34:05.290Z,75.24
2019-04-07T00:36:34.080Z,75.70
2019-04-07T00:39:01.562Z,75.25
2019-04-07T00:41:40.277Z,74.79
2019-04-07T00:44:09.785Z,74.49
2019-04-07T00:46:37.143Z,74.56
2019-04-07T00:49:04.265Z,74.57
2019-04-07T00:51:33.337Z,74.65
2019-04-07T00:54:00.684Z,75.07
2019-04-07T00:56:28.475Z,75.12
2019-04-07T00:58:56.397Z,74.75
2019-04-07T01:01:24.447Z,74.56
2019-04-07T01:03:51.517Z,74.56
2019-04-07T01:06:18.765Z,74.47
2019-04-07T01:08:47.847Z,74.57
2019-04-07T01:11:14.835Z,74.67
2019-04-07T01:13:42.728Z,75.28
2019-04-07T01:16:09.829Z,75.09
2019-04-07T01:18:37.115Z,75.03
2019-04-07T01:21:04.815Z,74.99
2019-04-07T01:23:32.470Z,75.03
2019-04-07T01:25:59.609Z,74.90
2019-04-07T01:28:27.483Z,74.96
2019-04-07T01:30:54.587Z,75.80
2019-04-07T01:33:21.797Z,76.62
2019-04-07T01:35:50.277Z,76.98
2019-04-07T01:38:17.892Z,76.80
2019-04-07T01:40:46.738Z,76.22
2019-04-07T01:43:21.711Z,76.50
2019-04-07T01:46:07.072Z,76.26
2019-04-07T01:48:42.224Z,75.86
2019-04-07T01:51:23.709Z,75.70
2019-04-07T01:54:02.107Z,75.63
2019-04-07T01:56:32.643Z,75.48
2019-04-07T01:59:02.573Z,75.42
2019-04-07T02:01:48.134Z,75.24
2019-04-07T02:04:14.956Z,75.53
2019-04-07T02:07:00.826Z,76.00
2019-04-07T02:09:58.620Z,76.28
2019-04-07T02:12:28.925Z,75.93
2019-04-07T02:14:57.773Z,75.32
2019-04-07T02:17:40.597Z,74.95
2019-04-07T02:20:36.095Z,74.89
2019-04-07T02:23:06.340Z,75.37
2019-04-07T02:25:36.160Z,75.79
2019-04-07T02:28:12.185Z,75.86
2019-04-07T02:30:48.055Z,75.96
2019-04-07T02:33:24.329Z,75.88
2019-04-07T02:35:54.439Z,76.05
2019-04-07T02:38:27.471Z,76.29
2019-04-07T02:40:59.888Z,76.21
2019-04-07T02:43:27.668Z,76.13
2019-04-07T02:46:13.076Z,76.65
2019-04-07T02:48:43.378Z,76.54
2019-04-07T02:51:15.751Z,76.08
2019-04-07T02:54:02.424Z,75.71
2019-04-07T02:56:38.288Z,75.43
2019-04-07T02:59:10.239Z,75.13
2019-04-07T03:01:48.482Z,75.37
2019-04-07T03:04:26.809Z,75.20
2019-04-07T03:06:56.815Z,75.48
2019-04-07T03:09:44.529Z,75.46
2019-04-07T03:12:26.140Z,75.57
2019-04-07T03:14:59.261Z,75.61
2019-04-07T03:17:41.588Z,75.70
2019-04-07T03:20:15.336Z,75.63
2019-04-07T03:23:02.162Z,75.60
2019-04-07T03:25:36.853Z,75.91
2019-04-07T03:28:08.814Z,76.11
2019-04-07T03:30:40.495Z,77.06
2019-04-07T03:33:13.384Z,77.01
2019-04-07T03:35:56.762Z,76.54
2019-04-07T03:38:42.872Z,76.31
2019-04-07T03:41:14.134Z,76.17
2019-04-07T03:43:46.453Z,76.67
2019-04-07T03:46:16.053Z,77.35
2019-04-07T03:48:48.067Z,77.15
2019-04-07T03:51:28.802Z,76.58
2019-04-07T03:54:03.481Z,76.27
2019-04-07T03:56:43.578Z,76.43
2019-04-07T03:59:33.296Z,76.64
2019-04-07T04:02:18.531Z,76.20
2019-04-07T04:04:47.358Z,75.84
2019-04-07T04:07:27.585Z,75.78
2019-04-07T04:09:47.607Z,75.37
2019-04-07T04:12:17.416Z,75.24
2019-04-07T04:14:48.715Z,76.07
2019-04-07T04:17:16.459Z,76.78
2019-04-07T04:19:44.023Z,76.17
2019-04-07T04:22:14.137Z,76.19
2019-04-07T04:24:42.185Z,76.19
2019-04-07T04:27:09.225Z,76.58
2019-04-07T04:29:37.390Z,76.66
2019-04-07T04:32:04.429Z,76.18
2019-04-07T04:34:31.869Z,77.20
2019-04-07T04:37:00.086Z,77.81
2019-04-07T04:39:27.288Z,76.80
2019-04-07T04:41:54.323Z,76.00
2019-04-07T04:44:22.459Z,76.58
2019-04-07T04:46:49.405Z,76.16
2019-04-07T04:49:16.978Z,75.84
2019-04-07T04:51:44.537Z,75.85
2019-04-07T04:54:12.516Z,75.55
2019-04-07T04:56:39.886Z,75.83
2019-04-07T04:59:07.437Z,76.88
2019-04-07T05:01:36.083Z,76.63
2019-04-07T05:04:03.936Z,76.39
2019-04-07T05:06:31.273Z,76.28
2019-04-07T05:08:58.260Z,75.84
2019-04-07T05:11:25.028Z,75.57
2019-04-07T05:13:52.847Z,75.77
2019-04-07T05:16:19.918Z,75.61
2019-04-07T05:18:47.064Z,75.72
2019-04-07T05:21:13.963Z,75.75
2019-04-07T05:23:41.298Z,75.91
2019-04-07T05:26:08.508Z,75.97
2019-04-07T05:28:36.995Z,75.90
2019-04-07T05:31:05.618Z,75.56
2019-04-07T05:33:32.691Z,75.39
2019-04-07T05:35:59.641Z,75.40
2019-04-07T05:38:26.536Z,75.28
2019-04-07T05:40:54.095Z,75.34
2019-04-07T05:43:21.480Z,75.24
2019-04-07T05:45:48.986Z,75.57
2019-04-07T05:48:18.532Z,75.49
2019-04-07T05:50:44.949Z,75.68
2019-04-07T05:53:14.772Z,75.41
2019-04-07T05:55:41.720Z,75.25
2019-04-07T05:58:08.826Z,74.92
2019-04-07T06:00:37.146Z,74.62
2019-04-07T06:03:07.842Z,74.40
2019-04-07T06:05:33.452Z,74.64
2019-04-07T06:08:18.722Z,74.53
2019-04-07T06:10:30.570Z,74.47
2019-04-07T06:12:57.445Z,74.22
2019-04-07T06:15:24.730Z,74.37
2019-04-07T06:17:52.210Z,74.89
2019-04-07T06:20:19.374Z,75.21
2019-04-07T06:22:46.973Z,75.19
2019-04-07T06:25:14.627Z,75.04
2019-04-07T06:27:44.927Z,75.05
2019-04-07T06:30:13.084Z,75.00
2019-04-07T06:32:40.808Z,75.15
2019-04-07T06:35:12.320Z,75.36
2019-04-07T06:37:38.715Z,75.71
2019-04-07T06:40:07.019Z,75.74
2019-04-07T06:42:34.317Z,75.47
2019-04-07T06:45:06.501Z,75.30
2019-04-07T06:47:42.205Z,75.55
2019-04-07T06:50:14.201Z,75.28
2019-04-07T06:52:53.147Z,75.04
2019-04-07T06:55:44.927Z,75.16
2019-04-07T06:58:14.413Z,75.04
2019-04-07T07:00:53.606Z,74.97
2019-04-07T07:03:29.409Z,74.81
2019-04-07T07:06:18.395Z,74.68
2019-04-07T07:08:48.664Z,74.67
2019-04-07T07:11:34.354Z,74.56
2019-04-07T07:14:31.404Z,74.12
2019-04-07T07:16:51.069Z,74.15
2019-04-07T07:19:39.159Z,73.81
2019-04-07T07:22:20.374Z,73.77
2019-04-07T07:24:49.123Z,74.27
2019-04-07T07:27:17.647Z,74.61
2019-04-07T07:29:45.842Z,74.19
2019-04-07T07:32:15.926Z,74.03
2019-04-07T07:34:43.941Z,74.12
2019-04-07T07:37:11.699Z,74.22
2019-04-07T07:39:42.596Z,74.02
2019-04-07T07:42:09.402Z,73.26
2019-04-07T07:44:38.512Z,72.80
2019-04-07T07:47:06.896Z,71.88
2019-04-07T07:49:37.078Z,71.68
2019-04-07T07:52:04.027Z,71.40
2019-04-07T07:54:31.622Z,71.01
2019-04-07T07:56:59.115Z,70.39
2019-04-07T07:59:26.298Z,69.62
2019-04-07T08:01:56.250Z,68.89
2019-04-07T08:04:26.415Z,68.09
2019-04-07T08:06:54.415Z,67.51
2019-04-07T08:09:24.961Z,67.17
2019-04-07T08:11:52.623Z,66.63
2019-04-07T08:14:19.917Z,66.18
2019-04-07T08:16:46.802Z,65.84
2019-04-07T08:19:14.530Z,65.69
2019-04-07T08:21:43.659Z,65.20
2019-04-07T08:24:11.311Z,64.63
2019-04-07T08:26:39.339Z,63.99
2019-04-07T08:29:07.754Z,63.46
2019-04-07T08:31:35.261Z,63.03
2019-04-07T08:34:03.751Z,62.34
2019-04-07T08:36:31.374Z,61.69
2019-04-07T08:38:59.489Z,61.09
2019-04-07T08:41:26.719Z,60.46
2019-04-07T08:43:56.654Z,59.85
2019-04-07T08:46:25.163Z,59.37
2019-04-07T08:48:55.302Z,58.80
2019-04-07T08:51:22.496Z,57.79
2019-04-07T08:53:49.624Z,56.56
2019-04-07T08:56:16.708Z,55.67
2019-04-07T08:58:43.837Z,55.06
2019-04-07T09:01:11.010Z,54.63
2019-04-07T09:03:37.826Z,54.28
2019-04-07T09:06:05.106Z,53.72
2019-04-07T09:08:34.670Z,53.31
2019-04-07T09:11:08.990Z,53.71
2019-04-07T09:13:36.334Z,53.45
2019-04-07T09:16:24.698Z,52.81
2019-04-07T09:19:10.189Z,52.53
2019-04-07T09:21:42.005Z,52.46
2019-04-07T09:24:08.315Z,52.24
2019-04-07T09:26:51.071Z,51.73
2019-04-07T09:29:32.847Z,52.28
2019-04-07T09:32:19.266Z,53.27
2019-04-07T09:34:57.238Z,54.34
2019-04-07T09:37:38.806Z,54.80
2019-04-07T09:40:23.563Z,55.34
2019-04-07T09:42:58.731Z,55.57
2019-04-07T09:45:32.495Z,55.44
2019-04-07T09:48:02.177Z,55.38
2019-04-07T09:50:47.069Z,55.51
2019-04-07T09:53:28.633Z,55.29
2019-04-07T09:56:11.931Z,55.30
2019-04-07T09:58:45.376Z,55.44
2019-04-07T10:01:19.811Z,55.57
2019-04-07T10:03:55.396Z,55.59
2019-04-07T10:06:25.647Z,55.52
2019-04-07T10:09:11.336Z,55.49
2019-04-07T10:11:38.550Z,55.42
2019-04-07T10:14:07.914Z,55.44
2019-04-07T10:16:39.512Z,55.27
2019-04-07T10:19:10.959Z,55.15
2019-04-07T10:21:38.310Z,55.08
2019-04-07T10:24:13.248Z,55.09
2019-04-07T10:26:47.332Z,55.03
2019-04-07T10:29:18.768Z,54.98
2019-04-07T10:31:58.595Z,54.87
2019-04-07T10:34:26.002Z,54.62
2019-04-07T10:37:11.723Z,54.19
2019-04-07T10:39:56.020Z,53.81
2019-04-07T10:42:27.237Z,52.35
2019-04-07T10:44:57.167Z,49.75
2019-04-07T10:47:30.268Z,50.28
2019-04-07T10:50:16.888Z,49.03
2019-04-07T10:52:56.286Z,49.22
2019-04-07T10:55:25.508Z,48.89
2019-04-07T10:58:04.390Z,47.59
2019-04-07T11:00:41.322Z,46.93
2019-04-07T11:03:08.366Z,47.35
2019-04-07T11:05:36.284Z,46.57
2019-04-07T11:08:24.409Z,45.29
2019-04-07T11:10:56.243Z,44.56
2019-04-07T11:13:28.937Z,43.40
2019-04-07T11:16:06.202Z,43.03
2019-04-07T11:18:36.410Z,42.99
2019-04-07T11:21:06.200Z,43.14
2019-04-07T11:23:45.262Z,42.94
2019-04-07T11:26:33.201Z,42.27
2019-04-07T11:29:04.375Z,41.11
2019-04-07T11:31:37.071Z,39.85
2019-04-07T11:34:25.433Z,38.98
2019-04-07T11:37:12.180Z,39.33
2019-04-07T11:39:44.643Z,41.22
2019-04-07T11:42:18.479Z,40.18
2019-04-07T11:45:05.043Z,39.08
2019-04-07T11:47:38.064Z,33.67
2019-04-07T11:50:27.970Z,37.48
2019-04-07T11:52:57.267Z,37.04
2019-04-07T11:55:44.263Z,39.09
2019-04-07T11:58:30.456Z,39.86
2019-04-07T12:00:58.213Z,39.00
2019-04-07T12:03:42.909Z,40.12
2019-04-07T12:06:17.066Z,41.93
2019-04-07T12:08:51.116Z,40.10
2019-04-07T12:11:21.304Z,37.15
2019-04-07T12:13:52.568Z,35.39
2019-04-07T12:16:28.683Z,35.94
2019-04-07T12:19:04.496Z,37.23
2019-04-07T12:21:37.187Z,37.33
2019-04-07T12:24:12.333Z,36.61
2019-04-07T12:26:43.632Z,36.45
2019-04-07T12:29:14.202Z,36.30
2019-04-07T12:32:02.372Z,36.43
2019-04-07T12:37:44.575Z,37.74
2019-04-07T12:40:22.337Z,37.68
2019-04-07T12:43:02.586Z,39.10
2019-04-07T12:45:49.367Z,40.66
2019-04-07T12:48:36.280Z,38.68
2019-04-07T12:51:24.657Z,37.18
2019-04-07T12:54:09.486Z,36.16
2019-04-07T12:56:57.750Z,34.65
2019-04-07T12:59:34.708Z,33.94
2019-04-07T13:02:09.326Z,33.43
2019-04-07T13:04:50.596Z,33.37
2019-04-07T13:07:38.718Z,32.44
2019-04-07T13:10:22.386Z,31.63
2019-04-07T13:12:55.809Z,31.58
2019-04-07T13:15:24.824Z,31.80
2019-04-07T13:17:53.699Z,31.68
2019-04-07T13:20:26.716Z,31.10
2019-04-07T13:23:01.554Z,30.99
2019-04-07T13:25:47.415Z,29.03
2019-04-07T13:28:16.749Z,37.67
2019-04-07T13:30:45.660Z,39.35
2019-04-07T13:33:28.403Z,36.08
2019-04-07T13:35:59.464Z,33.73
2019-04-07T13:38:45.765Z,32.53
2019-04-07T13:41:24.002Z,31.87
2019-04-07T13:44:12.980Z,31.53
2019-04-07T13:46:44.466Z,31.28
2019-04-07T13:49:43.047Z,31.69
2019-04-07T13:52:19.287Z,32.96
2019-04-07T13:54:47.268Z,34.72
2019-04-07T13:57:26.464Z,33.48
2019-04-07T13:59:57.810Z,32.31
2019-04-07T14:02:30.206Z,31.25
2019-04-07T14:05:04.872Z,30.65
2019-04-07T14:07:35.206Z,31.54
2019-04-07T14:10:11.332Z,33.62
2019-04-07T14:12:42.235Z,35.31
2019-04-07T14:15:21.624Z,36.92
2019-04-07T14:18:04.830Z,36.51
2019-04-07T14:20:38.785Z,38.03
2019-04-07T14:23:25.274Z,38.67
2019-04-07T14:25:54.898Z,39.04
2019-04-07T14:28:28.742Z,38.45
2019-04-07T14:31:12.804Z,38.40
2019-04-07T14:34:02.200Z,38.40
2019-04-07T14:36:48.180Z,37.64
2019-04-07T14:39:17.570Z,37.16
2019-04-07T14:42:03.954Z,36.13
2019-04-07T14:44:30.416Z,35.33
2019-04-07T14:46:58.156Z,35.23
2019-04-07T14:49:51.566Z,34.60
2019-04-07T14:52:31.831Z,34.08
2019-04-07T14:55:20.606Z,33.65
2019-04-07T14:57:50.257Z,34.45
2019-04-07T15:00:18.348Z,35.94
2019-04-07T15:02:46.616Z,36.63
2019-04-07T15:05:22.180Z,37.06
2019-04-07T15:07:59.499Z,37.05
2019-04-07T15:10:31.734Z,37.80
2019-04-07T15:13:05.356Z,38.23
2019-04-07T15:15:35.727Z,37.37
2019-04-07T15:18:03.790Z,37.71
2019-04-07T15:20:31.157Z,39.02
2019-04-07T15:22:59.917Z,39.41
2019-04-07T15:25:28.822Z,39.96
2019-04-07T15:27:58.900Z,40.19
2019-04-07T15:30:26.498Z,40.55
2019-04-07T15:32:57.706Z,40.64
2019-04-07T15:35:24.359Z,40.85
2019-04-07T15:37:52.459Z,41.03
2019-04-07T15:40:20.374Z,41.19
2019-04-07T15:42:50.700Z,41.32
2019-04-07T15:45:20.579Z,41.44
2019-04-07T15:47:51.321Z,41.61
2019-04-07T15:50:18.087Z,41.83
2019-04-07T15:52:46.969Z,42.30
2019-04-07T15:55:18.871Z,42.64
2019-04-07T15:57:46.756Z,42.98
2019-04-07T16:00:16.531Z,43.08
2019-04-07T16:02:44.389Z,43.22
2019-04-07T16:05:11.743Z,43.35
2019-04-07T16:07:42.054Z,43.49
2019-04-07T16:10:10.115Z,43.71
2019-04-07T16:12:44.564Z,43.82
2019-04-07T16:15:11.259Z,43.99
2019-04-07T16:17:41.292Z,44.16
2019-04-07T16:20:19.915Z,44.43
2019-04-07T16:22:51.898Z,44.45
2019-04-07T16:25:19.646Z,44.52
2019-04-07T16:27:47.665Z,44.61
2019-04-07T16:30:16.474Z,44.77
2019-04-07T16:32:44.965Z,44.95
2019-04-07T16:35:15.580Z,45.13
2019-04-07T16:37:43.812Z,45.37
2019-04-07T16:40:13.033Z,45.49
2019-04-07T16:42:40.490Z,45.53
2019-04-07T16:45:13.773Z,45.62
2019-04-07T16:47:38.950Z,45.90
2019-04-07T16:50:07.621Z,46.02
2019-04-07T16:52:36.428Z,46.14
2019-04-07T16:55:09.273Z,46.25
2019-04-07T16:57:37.414Z,46.30
2019-04-07T17:00:14.380Z,46.27
2019-04-07T17:02:42.779Z,46.23
2019-04-07T17:05:10.080Z,46.29
2019-04-07T17:07:37.048Z,46.39
2019-04-07T17:10:05.007Z,46.65
2019-04-07T17:12:32.349Z,46.85
2019-04-07T17:15:00.169Z,47.00
2019-04-07T17:17:28.169Z,47.10
2019-04-07T17:19:59.491Z,47.43
2019-04-07T17:22:27.228Z,47.61
2019-04-07T17:24:58.220Z,47.81
2019-04-07T17:27:24.839Z,48.05
2019-04-07T17:29:55.048Z,48.12
2019-04-07T17:32:23.128Z,48.38
2019-04-07T17:34:50.887Z,48.67
2019-04-07T17:37:20.089Z,49.00
2019-04-07T17:40:04.523Z,49.29
2019-04-07T17:42:32.349Z,49.42
2019-04-07T17:44:59.634Z,50.01
2019-04-07T17:47:29.574Z,50.27
2019-04-07T17:50:09.259Z,50.23
2019-04-07T17:52:40.457Z,50.43
2019-04-07T17:55:08.144Z,50.87
2019-04-07T17:57:53.494Z,50.88
2019-04-07T18:00:42.568Z,51.09
2019-04-07T18:03:21.621Z,51.50
2019-04-07T18:06:05.865Z,51.50
2019-04-07T18:08:36.206Z,51.69
2019-04-07T18:11:14.297Z,51.98
2019-04-07T18:13:49.900Z,52.83
2019-04-07T18:16:21.324Z,53.68
2019-04-07T18:19:06.812Z,53.99
2019-04-07T18:21:53.870Z,54.61
2019-04-07T18:24:30.830Z,55.07
2019-04-07T18:27:19.505Z,55.62
2019-04-07T18:29:55.166Z,56.17
2019-04-07T18:32:28.632Z,56.09
2019-04-07T18:35:04.190Z,55.88
2019-04-07T18:37:52.786Z,55.82
2019-04-07T18:40:26.292Z,55.87
2019-04-07T18:42:54.506Z,55.98
2019-04-07T18:45:31.902Z,56.51
2019-04-07T18:48:18.114Z,56.30
2019-04-07T18:51:07.974Z,56.31
2019-04-07T18:53:53.189Z,56.23
2019-04-07T18:56:34.632Z,56.18
2019-04-07T18:59:04.293Z,55.96
2019-04-07T19:01:51.065Z,56.14
2019-04-07T19:04:38.106Z,55.93
2019-04-07T19:07:07.823Z,55.95
2019-04-07T19:09:47.703Z,55.72
2019-04-07T19:12:22.994Z,55.80
2019-04-07T19:15:08.219Z,55.78
2019-04-07T19:17:32.657Z,56.01
2019-04-07T19:20:23.813Z,56.04
2019-04-07T19:22:54.062Z,55.86
2019-04-07T19:25:42.642Z,55.71
2019-04-07T19:28:23.198Z,55.48
2019-04-07T19:31:04.447Z,55.53
2019-04-07T19:33:49.405Z,55.66
2019-04-07T19:36:30.580Z,55.48
2019-04-07T19:39:02.784Z,55.44
2019-04-07T19:41:45.418Z,55.57
2019-04-07T19:44:38.502Z,55.76
2019-04-07T19:47:04.639Z,55.66
2019-04-07T19:49:37.460Z,55.49
2019-04-07T19:52:23.488Z,55.69
2019-04-07T19:55:08.892Z,55.66
2019-04-07T19:57:48.402Z,55.69
2019-04-07T20:00:30.959Z,55.72
2019-04-07T20:03:17.812Z,55.84
2019-04-07T20:06:09.932Z,56.02
2019-04-07T20:08:40.071Z,56.13
2019-04-07T20:11:09.814Z,56.19
2019-04-07T20:13:40.978Z,56.16
2019-04-07T20:16:28.334Z,56.01
2019-04-07T20:18:59.478Z,56.06
2019-04-07T20:21:39.050Z,55.85
2019-04-07T20:24:07.364Z,56.01
2019-04-07T20:26:42.685Z,56.11
2019-04-07T20:29:31.082Z,56.16
2019-04-07T20:32:05.172Z,56.21
2019-04-07T20:34:37.437Z,56.37
2019-04-07T20:37:12.872Z,56.24
2019-04-07T20:39:43.459Z,56.48
2019-04-07T20:42:23.583Z,56.65
2019-04-07T20:45:16.259Z,56.72
2019-04-07T20:47:51.336Z,56.81
2019-04-07T20:50:26.284Z,57.00
2019-04-07T20:53:08.370Z,56.82
2019-04-07T20:55:41.264Z,57.10
2019-04-07T20:58:23.871Z,57.16
2019-04-07T21:00:59.683Z,57.32
2019-04-07T21:03:40.417Z,57.31
2019-04-07T21:06:12.636Z,57.58
2019-04-07T21:08:41.946Z,57.62
2019-04-07T21:11:13.586Z,57.52
2019-04-07T21:13:43.047Z,57.76
2019-04-07T21:16:10.562Z,57.73
2019-04-07T21:18:40.285Z,57.94
2019-04-07T21:21:11.935Z,58.26
2019-04-07T21:23:43.333Z,58.27
2019-04-07T21:26:15.512Z,58.27
2019-04-07T21:28:44.412Z,58.21
2019-04-07T21:31:20.414Z,58.05
2019-04-07T21:33:55.875Z,58.11
2019-04-07T21:36:28.594Z,58.10
2019-04-07T21:39:16.233Z,58.30
2019-04-07T21:41:45.188Z,58.95
2019-04-07T21:44:27.011Z,59.33
2019-04-07T21:47:04.326Z,59.86
2019-04-07T21:49:34.752Z,60.35
2019-04-07T21:52:05.407Z,60.69
2019-04-07T21:54:42.999Z,61.05
2019-04-07T21:57:15.147Z,60.82
2019-04-07T21:59:52.173Z,60.94
2019-04-07T22:02:27.447Z,61.00
2019-04-07T22:04:57.022Z,61.15
2019-04-07T22:07:27.658Z,61.08
2019-04-07T22:10:03.843Z,61.37
2019-04-07T22:12:32.564Z,61.48
2019-04-07T22:15:00.334Z,61.30
2019-04-07T22:17:27.693Z,61.59
2019-04-07T22:19:55.069Z,61.42
2019-04-07T22:22:24.089Z,61.42
2019-04-07T22:24:51.559Z,61.50
2019-04-07T22:27:22.644Z,61.28
2019-04-07T22:29:48.982Z,61.60
2019-04-07T22:32:19.240Z,61.85
2019-04-07T22:34:46.114Z,61.91
2019-04-07T22:37:15.572Z,62.04
2019-04-07T22:39:42.258Z,62.21
2019-04-07T22:42:12.807Z,62.08
2019-04-07T22:44:38.587Z,62.16
2019-04-07T22:47:07.011Z,62.03
2019-04-07T22:49:37.692Z,61.67
2019-04-07T22:52:06.514Z,61.22
2019-04-07T22:54:34.925Z,61.49
2019-04-07T22:57:02.875Z,61.51
2019-04-07T22:59:30.197Z,61.30
2019-04-07T23:01:58.048Z,61.50
2019-04-07T23:04:25.842Z,61.64
2019-04-07T23:06:52.878Z,61.55
2019-04-07T23:09:19.691Z,61.92
2019-04-07T23:11:47.035Z,61.88
2019-04-07T23:14:14.582Z,61.53
2019-04-07T23:16:42.261Z,61.40
2019-04-07T23:19:09.615Z,60.99
2019-04-07T23:21:38.298Z,60.83
2019-04-07T23:24:05.522Z,60.74
2019-04-07T23:26:32.574Z,60.86
2019-04-07T23:28:59.527Z,60.49
2019-04-07T23:31:27.887Z,60.27
2019-04-07T23:33:56.537Z,60.17
2019-04-07T23:36:24.245Z,60.18
2019-04-07T23:38:51.960Z,60.12
2019-04-07T23:41:20.178Z,59.97
2019-04-07T23:43:47.807Z,60.00
2019-04-07T23:46:23.172Z,60.06
2019-04-07T23:48:47.604Z,60.23
2019-04-07T23:51:14.501Z,60.22
2019-04-07T23:54:08.998Z,60.33
2019-04-07T23:56:39.424Z,60.21
2019-04-07T23:59:08.073Z,60.31
